KSLB/SLB METAR and TAF weather

Enter ICAO airport designator
Station Type Date Time Source
KSLB METAR 2019/12/10 06:15 UTC NOAA

KSLB 100615Z AUTO 23007KT 10SM OVC075 M15/M16 A2999 RMK AO2


Station Type Date Time Source
KSLB Decoded METAR 2019/12/10 06:15 UTC NOAA

Storm Lake, IA, United States (KSLB) 42-36N 095-14W
Dec 10, 2019 - 01:15 AM EST / 2019.12.10 0615 UTC
Wind: from the SW (230 degrees) at 8 MPH (7 KT):0
Visibility: 10 mile(s):0
Sky conditions: overcast
Temperature: 5 F (-15 C)
Windchill: -7 F (-22 C):2
Dew Point: 3 F (-16 C)
Relative Humidity: 92%
Pressure (altimeter): 29.99 in. Hg (1015 hPa)
ob: KSLB 100615Z AUTO 23007KT 10SM OVC075 M15/M16 A2999 RMK AO2
cycle: 6

Station Type Date Time Source
KSLB TAF UTC NOAA

Error!

Example: see airport list